• Join FlightAware (Why Join?)
  • Login
  • US Flag 
 
09:51PM EST


 

Airport Tracker/Info


-or-


 

Live Flight TrackerFlight Track Log ✈ JTL393 ✈ 11-Jun-2013 ✈ KFOD - KOMA

Flight Track Log - Related Links

Times and Time Zones

All times are in EDT time to prevent confusion due to time zone crossing. See the JTL393 flight status page for this flight to view local times or setup timezone preferences in your user account.

Time Position Orientation Groundspeed Altitude Reporting Facility
EDT Latitude Longitude Course Direction KTS MPH feet Rate Location/Type
06:13PM 42.5164 -94.3408 249° West 158 182 7,100  Level Minneapolis Center
06:14PM 42.4936 -94.4219 249° West 215 247 9,400 1,980 Climbing Minneapolis Center
06:15PM 42.4511 -94.4883 229° Southwest 231 266 11,200 1,740 Climbing Minneapolis Center
06:16PM 42.3944 -94.5858 232° Southwest 265 305 13,100 1,320 Climbing Minneapolis Center
06:17PM 42.3403 -94.6692 229° Southwest 288 331 14,000 420 Climbing Minneapolis Center
06:18PM 42.2842 -94.7622 231° Southwest 308 354 14,000  Level Minneapolis Center
06:19PM 42.2250 -94.8594 231° Southwest 328 377 14,100  Climbing Minneapolis Center
06:20PM 42.1694 -94.9500 230° Southwest 319 367 14,000 -120 Descending Minneapolis Center
06:21PM 42.1183 -95.0367 232° Southwest 299 344 13,900  Descending Minneapolis Center
06:22PM 42.0383 -95.1425 225° Southwest 333 383 14,000  Climbing Minneapolis Center
06:23PM 41.9669 -95.2264 221° Southwest 339 390 14,000 -300 Level Minneapolis Center
06:25PM 41.9006 -95.3058 222° Southwest 323 372 13,400 -960 Descending Minneapolis Center
06:26PM 41.8347 -95.3919 224° Southwest 329 379 12,000 -1,440 Descending Minneapolis Center
06:27PM 41.7731 -95.4681 223° Southwest 309 356 10,500 -1,500 Descending Minneapolis Center
06:28PM 41.7236 -95.5303 223° Southwest 260 299 9,000 -1,440 Descending Minneapolis Center
06:29PM 41.6758 -95.5881 222° Southwest 239 275 7,600 -1,620 Descending Minneapolis Center
06:29PM 41.6561 -95.6264 235° Southwest 237 273 6,900 -1,680 Descending Minneapolis Center
06:30PM 41.6153 -95.6614 213° Southwest 241 277 5,900 -1,260 Descending Minneapolis Center
06:31PM 41.5681 -95.7197 223° Southwest 239 275 4,700 -1,020 Descending Minneapolis Center
06:32PM 41.5244 -95.7708 221° Southwest 225 259 3,900 -660 Descending Minneapolis Center
06:33PM 41.4814 -95.8311 226° Southwest 178 205 3,300 -480 Descending Minneapolis Center
06:34PM 41.4514 -95.8589 215° Southwest 188 216 2,900 -480 Descending Minneapolis Center
06:35PM 41.4094 -95.8947 213° Southwest 185 213 2,400 -540 Descending Minneapolis Center
06:36PM 41.3561 -95.9292 206° Southwest 159 183 1,900 -600 Descending Minneapolis Center
06:37PM 41.3214 -95.9083 156° South 146 168 1,200 -720 Descending Minneapolis Center
06:39PM 41.3032 -95.8941 246° West  Level Estimated